Terminal Aerodrome Forecast
Issued by NWS Charleston, WV

Current Version | Previous Version | Text Only | Print | Product List | Glossary Off
Versions: 1 2 3 4 5 6 7 8 9 10 11 12 13 14 15 16 17 18 19 20 21 22

345
FTUS41 KRLX 200530
TAFCRW
TAF
KCRW 200530Z 2006/2106 22004KT P6SM FEW250
     FM200900 00000KT 6SM BR FEW002
     FM201200 25006KT P6SM FEW250
     FM201600 25008G16KT P6SM FEW070
     FM202200 24006KT P6SM SCT060=

USA.gov is the U.S. government's official web portal to all federal, state and local government web resources and services.